Time;durP1;ratioP1;P1;durP2;ratioP2;P2;SDS_P1;SDS_P2;PMS_P1;PMS_P2;Temp;Humidity;BMP_temperature;BMP_pressure;BME280_temperature;BME280_humidity;BME280_pressure;Samples;Min_cycle;Max_cycle;Signal;HPM_P1;HPM_P2
2022/08/23 00:00:46;;;;;;;27.57;18.20;;;;;;;;;;5052506;28;20017;-46
2022/08/23 00:03:11;;;;;;;30.33;18.67;;;;;;;;;;5052338;28;20341;-44
2022/08/23 00:05:37;;;;;;;26.23;17.67;;;;;;;;;;5052684;28;20355;-46
2022/08/23 00:08:03;;;;;;;25.52;16.75;;;;;;;;;;5052305;28;20017;-43
2022/08/23 00:10:28;;;;;;;24.50;16.27;;;;;;;;;;5052423;28;20040;-44
2022/08/23 00:12:53;;;;;;;24.05;16.23;;;;;;;;;;5052700;28;20028;-44
2022/08/23 00:15:19;;;;;;;25.60;16.87;;;;;;;;;;5052828;28;20024;-45
2022/08/23 00:17:45;;;;;;;24.92;17.13;;;;;;;;;;5035033;28;20626;-44
2022/08/23 00:20:11;;;;;;;28.17;17.67;;;;;;;;;;5034872;28;20078;-44
2022/08/23 00:22:38;;;;;;;28.15;16.98;;;;;;;;;;5034329;28;20065;-44
2022/08/23 00:25:04;;;;;;;28.90;18.13;;;;;;;;;;5033967;28;20430;-44
2022/08/23 00:27:30;;;;;;;27.67;17.10;;;;;;;;;;5052681;28;20108;-43
2022/08/23 00:29:56;;;;;;;28.17;17.63;;;;;;;;;;5034260;28;20410;-44
2022/08/23 00:32:29;;;;;;;26.92;17.23;;;;;;;;;;5034418;28;20017;-44
2022/08/23 00:34:54;;;;;;;26.67;16.95;;;;;;;;;;5033888;28;20021;-44
2022/08/23 00:37:20;;;;;;;26.73;16.63;;;;;;;;;;5052150;28;20480;-44
2022/08/23 00:39:45;;;;;;;29.67;16.52;;;;;;;;;;5051659;28;20483;-44
2022/08/23 00:47:56;;;;;;;27.25;15.90;;;;;;;;;;5052253;28;20075;-46
2022/08/23 00:50:21;;;;;;;22.25;15.70;;;;;;;;;;5033537;28;20427;-44
2022/08/23 00:53:19;;;;;;;25.90;16.98;;;;;;;;;;5032015;28;20028;-46
2022/08/23 00:55:47;;;;;;;21.88;14.88;;;;;;;;;;4970926;28;20145;-44
2022/08/23 00:58:14;;;;;;;22.23;15.73;;;;;;;;;;5031214;28;20032;-44
2022/08/23 01:00:39;;;;;;;23.10;14.02;;;;;;;;;;5013817;28;20030;-44
2022/08/23 01:03:07;;;;;;;22.58;14.23;;;;;;;;;;5031200;28;20049;-43
2022/08/23 01:05:53;;;;;;;20.50;13.80;;;;;;;;;;5041288;28;20052;-44
2022/08/23 01:08:20;;;;;;;21.85;15.13;;;;;;;;;;5051215;28;20037;-44
2022/08/23 01:10:47;;;;;;;21.42;14.95;;;;;;;;;;5050324;28;20025;-45
2022/08/23 01:13:18;;;;;;;24.35;14.13;;;;;;;;;;5051311;28;20430;-44
2022/08/23 01:15:55;;;;;;;22.92;15.50;;;;;;;;;;5050233;28;20377;-45
2022/08/23 01:18:23;;;;;;;20.35;13.95;;;;;;;;;;5051506;28;20064;-44
2022/08/23 01:20:52;;;;;;;18.98;13.27;;;;;;;;;;5050575;28;20445;-45
2022/08/23 01:23:35;;;;;;;21.77;14.95;;;;;;;;;;5050053;28;20059;-44
2022/08/23 01:26:02;;;;;;;19.98;12.10;;;;;;;;;;5050038;28;20035;-44
2022/08/23 01:28:28;;;;;;;19.42;14.25;;;;;;;;;;5050009;28;20021;-44
2022/08/23 01:30:53;;;;;;;18.50;13.73;;;;;;;;;;5051118;28;20529;-44
2022/08/23 01:33:18;;;;;;;18.92;13.75;;;;;;;;;;5050980;28;20245;-44
2022/08/23 01:35:48;;;;;;;24.40;15.80;;;;;;;;;;5050788;28;20025;-45
2022/08/23 01:38:13;;;;;;;;;;;;;;;;;;5051636;28;20478;-44
2022/08/23 01:40:39;;;;;;;22.17;13.90;;;;;;;;;;5051215;28;20357;-46
2022/08/23 01:43:04;;;;;;;22.67;14.82;;;;;;;;;;5051610;28;20109;-44
2022/08/23 01:45:30;;;;;;;23.52;15.25;;;;;;;;;;5051302;28;20124;-44
2022/08/23 01:47:56;;;;;;;21.48;14.10;;;;;;;;;;5051112;28;20150;-46
2022/08/23 01:50:22;;;;;;;20.83;13.32;;;;;;;;;;5049419;28;20025;-44
2022/08/23 01:52:47;;;;;;;19.80;14.10;;;;;;;;;;5070209;28;20031;-45
2022/08/23 01:55:13;;;;;;;19.30;12.57;;;;;;;;;;5070970;28;20020;-44
2022/08/23 01:57:39;;;;;;;20.27;14.10;;;;;;;;;;5070935;28;20024;-43
2022/08/23 02:00:05;;;;;;;19.10;13.75;;;;;;;;;;5070924;28;20033;-44
2022/08/23 02:02:31;;;;;;;25.23;13.75;;;;;;;;;;5070758;28;20024;-43
2022/08/23 02:04:56;;;;;;;25.10;13.70;;;;;;;;;;5059810;28;20550;-45
2022/08/23 02:07:25;;;;;;;19.90;13.77;;;;;;;;;;5032700;28;20345;-45
2022/08/23 02:09:50;;;;;;;19.98;14.63;;;;;;;;;;5050675;28;20078;-45
2022/08/23 02:12:16;;;;;;;19.35;13.70;;;;;;;;;;5032812;28;20464;-44
2022/08/23 02:14:41;;;;;;;22.73;14.10;;;;;;;;;;5050729;28;20066;-44
2022/08/23 02:17:06;;;;;;;20.58;15.27;;;;;;;;;;5032801;28;20875;-44
2022/08/23 02:19:33;;;;;;;22.73;14.57;;;;;;;;;;5050553;28;20024;-43
2022/08/23 02:21:58;;;;;;;17.33;12.93;;;;;;;;;;5050566;28;20020;-44
2022/08/23 02:24:24;;;;;;;21.48;14.07;;;;;;;;;;5050695;28;20078;-43
2022/08/23 02:26:51;;;;;;;19.25;13.82;;;;;;;;;;5050546;28;20029;-44
2022/08/23 02:29:17;;;;;;;19.60;14.13;;;;;;;;;;5050818;28;20024;-43
2022/08/23 02:31:45;;;;;;;21.42;14.77;;;;;;;;;;5052848;28;20032;-44
2022/08/23 02:34:11;;;;;;;22.35;14.85;;;;;;;;;;5054313;28;20025;-44
2022/08/23 02:36:37;;;;;;;22.85;14.88;;;;;;;;;;5054247;28;20124;-43
2022/08/23 02:39:03;;;;;;;22.13;15.13;;;;;;;;;;5036284;28;20151;-44
2022/08/23 02:41:29;;;;;;;22.42;15.50;;;;;;;;;;5053921;28;20106;-45
2022/08/23 02:43:54;;;;;;;22.30;15.70;;;;;;;;;;5054503;28;20473;-43
2022/08/23 02:46:20;;;;;;;23.00;14.30;;;;;;;;;;5053888;28;20286;-44
2022/08/23 02:48:45;;;;;;;22.08;15.23;;;;;;;;;;5053805;28;20139;-44
2022/08/23 02:51:10;;;;;;;22.00;15.65;;;;;;;;;;5029773;28;20018;-43
2022/08/23 02:53:36;;;;;;;22.30;15.45;;;;;;;;;;5034568;28;20018;-44
2022/08/23 02:56:02;;;;;;;22.13;14.60;;;;;;;;;;5034000;28;20022;-45
2022/08/23 02:58:27;;;;;;;22.55;16.25;;;;;;;;;;5033824;28;20132;-45
2022/08/23 03:00:52;;;;;;;22.83;15.23;;;;;;;;;;5034590;28;20477;-44
2022/08/23 03:03:18;;;;;;;23.50;17.13;;;;;;;;;;5034341;28;20503;-44
2022/08/23 03:05:44;;;;;;;25.33;17.15;;;;;;;;;;5033983;28;20056;-43
2022/08/23 03:08:10;;;;;;;28.48;17.63;;;;;;;;;;5033378;28;20029;-44
2022/08/23 03:10:35;;;;;;;27.13;18.08;;;;;;;;;;5034112;28;20022;-44
2022/08/23 03:13:01;;;;;;;28.25;18.65;;;;;;;;;;5033558;28;20067;-44
2022/08/23 03:15:27;;;;;;;24.98;17.35;;;;;;;;;;5033793;28;20025;-44
2022/08/23 03:17:52;;;;;;;24.50;17.52;;;;;;;;;;5034155;28;20473;-43
2022/08/23 03:20:17;;;;;;;27.00;16.98;;;;;;;;;;5033406;28;20531;-44
2022/08/23 03:22:43;;;;;;;24.35;16.35;;;;;;;;;;5016168;28;20477;-44
2022/08/23 03:25:08;;;;;;;22.35;16.10;;;;;;;;;;5033575;28;20033;-44
2022/08/23 03:27:34;;;;;;;24.60;16.35;;;;;;;;;;5015827;28;20080;-46
2022/08/23 03:29:59;;;;;;;25.55;15.63;;;;;;;;;;5033473;28;20469;-44
2022/08/23 03:32:25;;;;;;;22.87;15.30;;;;;;;;;;5033465;28;20111;-44
2022/08/23 03:34:50;;;;;;;24.85;15.40;;;;;;;;;;5033789;28;20247;-43
2022/08/23 03:37:16;;;;;;;23.05;15.30;;;;;;;;;;5015314;28;20468;-46
2022/08/23 03:39:42;;;;;;;26.23;15.75;;;;;;;;;;5033274;28;20021;-44
2022/08/23 03:42:07;;;;;;;24.95;15.93;;;;;;;;;;5031784;28;20021;-44
2022/08/23 03:44:32;;;;;;;25.70;15.73;;;;;;;;;;5032954;28;20040;-45
2022/08/23 03:46:58;;;;;;;25.25;14.57;;;;;;;;;;5032558;28;20037;-44
2022/08/23 03:49:23;;;;;;;23.17;15.10;;;;;;;;;;5015090;28;20074;-44
2022/08/23 03:51:48;;;;;;;24.40;16.17;;;;;;;;;;5044284;28;20086;-44
2022/08/23 03:54:14;;;;;;;22.48;14.90;;;;;;;;;;5052472;28;20250;-44
2022/08/23 03:56:49;;;;;;;28.80;15.77;;;;;;;;;;5052844;28;20074;-45
2022/08/23 03:59:14;;;;;;;21.77;14.77;;;;;;;;;;5034702;28;20021;-46
2022/08/23 04:01:40;;;;;;;20.83;15.30;;;;;;;;;;5052457;28;20032;-45
2022/08/23 04:04:05;;;;;;;21.23;14.63;;;;;;;;;;5052456;28;20059;-44
2022/08/23 04:06:31;;;;;;;18.50;12.52;;;;;;;;;;5052230;28;20048;-44
2022/08/23 04:08:57;;;;;;;21.45;14.48;;;;;;;;;;5034660;28;20021;-44
2022/08/23 04:11:22;;;;;;;25.20;14.55;;;;;;;;;;5034602;28;20387;-43
2022/08/23 04:13:48;;;;;;;19.73;12.88;;;;;;;;;;5052200;28;20199;-44
2022/08/23 04:16:13;;;;;;;25.13;15.65;;;;;;;;;;5052127;28;20025;-43
2022/08/23 04:18:38;;;;;;;20.45;14.07;;;;;;;;;;5034403;28;20384;-45
2022/08/23 04:21:06;;;;;;;22.50;13.85;;;;;;;;;;5052041;28;20047;-44
2022/08/23 04:23:31;;;;;;;22.02;14.25;;;;;;;;;;5034059;28;20376;-43
2022/08/23 04:25:57;;;;;;;23.92;14.85;;;;;;;;;;5033849;28;20033;-45
2022/08/23 04:28:22;;;;;;;22.45;14.95;;;;;;;;;;5051864;28;20017;-44
2022/08/23 04:30:48;;;;;;;25.20;14.82;;;;;;;;;;5034244;28;20049;-45
2022/08/23 04:33:14;;;;;;;22.92;14.07;;;;;;;;;;5052464;28;20049;-43
2022/08/23 04:35:40;;;;;;;23.67;15.27;;;;;;;;;;5034615;28;20032;-44
2022/08/23 04:38:05;;;;;;;23.85;14.40;;;;;;;;;;5051812;28;20013;-44
2022/08/23 04:43:14;;;;;;;26.27;14.88;;;;;;;;;;5051891;28;20051;-44
2022/08/23 04:45:40;;;;;;;22.75;14.77;;;;;;;;;;5034296;28;20468;-45
2022/08/23 04:48:05;;;;;;;20.95;13.80;;;;;;;;;;5033902;28;20025;-44
2022/08/23 04:50:31;;;;;;;19.95;14.02;;;;;;;;;;5051104;28;20020;-43
2022/08/23 04:52:56;;;;;;;23.42;15.15;;;;;;;;;;5031701;28;20087;-45
2022/08/23 04:55:22;;;;;;;21.58;14.10;;;;;;;;;;5013784;28;20395;-44
2022/08/23 04:57:47;;;;;;;21.80;13.55;;;;;;;;;;5013785;28;20025;-45
2022/08/23 05:00:13;;;;;;;23.77;14.68;;;;;;;;;;5031438;28;20542;-43
2022/08/23 05:02:39;;;;;;;22.35;13.00;;;;;;;;;;5031368;28;20033;-44
2022/08/23 05:05:05;;;;;;;20.70;13.25;;;;;;;;;;5034068;28;20104;-43
2022/08/23 05:07:30;;;;;;;17.73;12.75;;;;;;;;;;5049583;28;20017;-44
2022/08/23 05:09:56;;;;;;;22.60;13.63;;;;;;;;;;5049625;28;20036;-45
2022/08/23 05:12:21;;;;;;;21.95;14.40;;;;;;;;;;5051368;28;20025;-44
2022/08/23 05:14:46;;;;;;;21.33;14.93;;;;;;;;;;5049871;28;20024;-44
2022/08/23 05:17:12;;;;;;;21.98;14.02;;;;;;;;;;5050851;28;20486;-45
2022/08/23 05:19:37;;;;;;;24.60;14.30;;;;;;;;;;5051464;28;20151;-45
2022/08/23 05:22:02;;;;;;;25.10;13.68;;;;;;;;;;5049842;28;20021;-44
2022/08/23 05:24:28;;;;;;;22.63;14.45;;;;;;;;;;5051094;28;20159;-44
2022/08/23 05:26:53;;;;;;;27.20;14.35;;;;;;;;;;5051254;28;20063;-44
2022/08/23 05:29:20;;;;;;;22.30;14.32;;;;;;;;;;5049713;28;20017;-45
2022/08/23 05:31:45;;;;;;;25.40;15.20;;;;;;;;;;5051385;28;20017;-45
2022/08/23 05:34:10;;;;;;;20.02;13.40;;;;;;;;;;5051678;28;20020;-44
2022/08/23 05:36:36;;;;;;;17.35;12.98;;;;;;;;;;5051380;28;20020;-45
2022/08/23 05:39:02;;;;;;;27.80;15.40;;;;;;;;;;5050523;28;20087;-43
2022/08/23 05:41:27;;;;;;;19.90;13.88;;;;;;;;;;5049416;28;20388;-44
2022/08/23 05:43:52;;;;;;;14.98;10.80;;;;;;;;;;5053574;28;20021;-43
2022/08/23 05:46:19;;;;;;;22.15;13.57;;;;;;;;;;5063715;28;20036;-45
2022/08/23 05:48:46;;;;;;;22.42;14.50;;;;;;;;;;5068477;28;20094;-44
2022/08/23 05:51:13;;;;;;;22.13;14.27;;;;;;;;;;5067480;28;20047;-44
2022/08/23 05:53:39;;;;;;;20.27;13.00;;;;;;;;;;5078131;28;20044;-46
2022/08/23 05:56:15;;;;;;;20.63;13.63;;;;;;;;;;5058722;28;20480;-44
2022/08/23 05:58:40;;;;;;;19.23;11.95;;;;;;;;;;5068606;28;20039;-44
2022/08/23 06:01:06;;;;;;;19.95;12.80;;;;;;;;;;5070982;28;20334;-44
2022/08/23 06:03:31;;;;;;;19.92;13.23;;;;;;;;;;5070576;28;20025;-43
2022/08/23 06:05:57;;;;;;;19.45;13.02;;;;;;;;;;5030514;28;20118;-45
2022/08/23 06:08:22;;;;;;;13.07;9.60;;;;;;;;;;5047537;28;20029;-45
2022/08/23 06:10:47;;;;;;;9.23;6.83;;;;;;;;;;5046419;28;20474;-44
2022/08/23 06:13:13;;;;;;;15.73;10.52;;;;;;;;;;5034175;28;20265;-44
2022/08/23 06:15:42;;;;;;;11.57;8.52;;;;;;;;;;5053181;28;20044;-44
2022/08/23 06:18:07;;;;;;;13.65;9.13;;;;;;;;;;5051674;28;20029;-47
2022/08/23 06:20:33;;;;;;;17.90;12.30;;;;;;;;;;5034706;28;20032;-44
2022/08/23 06:22:58;;;;;;;15.23;9.73;;;;;;;;;;5033826;28;20035;-45
2022/08/23 06:25:23;;;;;;;13.67;9.80;;;;;;;;;;5049620;28;20411;-44
2022/08/23 06:27:48;;;;;;;12.80;9.03;;;;;;;;;;5049914;28;20808;-45
2022/08/23 06:30:14;;;;;;;14.45;10.55;;;;;;;;;;5029303;28;20254;-44
2022/08/23 06:32:39;;;;;;;10.93;8.18;;;;;;;;;;5050274;28;20411;-43
2022/08/23 06:35:05;;;;;;;12.68;8.32;;;;;;;;;;5049256;28;20041;-45
2022/08/23 06:37:30;;;;;;;15.52;10.27;;;;;;;;;;5034512;28;20028;-45
2022/08/23 06:39:56;;;;;;;14.00;9.38;;;;;;;;;;5051936;28;20109;-45
2022/08/23 06:42:23;;;;;;;15.15;10.10;;;;;;;;;;5051754;28;20108;-45
2022/08/23 06:44:49;;;;;;;14.55;10.00;;;;;;;;;;5047674;28;20473;-46
2022/08/23 06:47:15;;;;;;;20.17;10.20;;;;;;;;;;5050939;28;20025;-46
2022/08/23 06:49:41;;;;;;;16.02;9.63;;;;;;;;;;5049699;28;20021;-44
2022/08/23 06:52:08;;;;;;;13.57;9.30;;;;;;;;;;5036276;28;20025;-46
2022/08/23 06:54:34;;;;;;;15.55;8.90;;;;;;;;;;5031628;28;20053;-45
2022/08/23 06:57:00;;;;;;;10.45;8.20;;;;;;;;;;5033155;28;20101;-46
2022/08/23 06:59:25;;;;;;;14.25;9.13;;;;;;;;;;5032032;28;20112;-45
2022/08/23 07:01:53;;;;;;;15.20;8.93;;;;;;;;;;5032093;28;20029;-45
2022/08/23 07:04:20;;;;;;;11.88;8.27;;;;;;;;;;5031729;28;20049;-45
2022/08/23 07:06:46;;;;;;;12.73;8.07;;;;;;;;;;5031606;28;20108;-47
2022/08/23 07:09:11;;;;;;;12.18;8.57;;;;;;;;;;5031800;28;20109;-44
2022/08/23 07:11:38;;;;;;;14.40;7.80;;;;;;;;;;5014285;28;20457;-45
2022/08/23 07:14:05;;;;;;;13.52;8.43;;;;;;;;;;5033813;28;20022;-44
2022/08/23 07:16:32;;;;;;;9.18;5.47;;;;;;;;;;5015514;28;20021;-44
2022/08/23 07:18:57;;;;;;;9.25;6.93;;;;;;;;;;5032996;28;20542;-45
2022/08/23 07:21:22;;;;;;;8.82;6.85;;;;;;;;;;5033723;28;20097;-45
2022/08/23 07:23:48;;;;;;;8.07;5.90;;;;;;;;;;5015686;28;20084;-45
2022/08/23 07:26:14;;;;;;;10.88;7.80;;;;;;;;;;5045620;28;20043;-44
2022/08/23 07:28:40;;;;;;;11.98;7.57;;;;;;;;;;5035618;28;20439;-46
2022/08/23 07:31:14;;;;;;;11.10;7.20;;;;;;;;;;5053696;28;20021;-44
2022/08/23 07:33:40;;;;;;;10.30;7.38;;;;;;;;;;5035635;28;20029;-44
2022/08/23 07:36:06;;;;;;;13.10;7.63;;;;;;;;;;5052633;28;20028;-45
2022/08/23 07:38:32;;;;;;;10.98;7.35;;;;;;;;;;5052074;28;20031;-44
2022/08/23 07:40:57;;;;;;;17.77;9.10;;;;;;;;;;5052573;28;20111;-44
2022/08/23 07:43:22;;;;;;;10.55;8.25;;;;;;;;;;5052053;28;20457;-44
2022/08/23 07:45:48;;;;;;;10.65;6.57;;;;;;;;;;5052278;28;20036;-45
2022/08/23 07:48:13;;;;;;;9.45;8.02;;;;;;;;;;5033839;28;20108;-44
2022/08/23 07:50:39;;;;;;;13.48;9.75;;;;;;;;;;5053396;28;20056;-44
2022/08/23 07:53:05;;;;;;;11.88;8.07;;;;;;;;;;5052724;28;20097;-46
2022/08/23 07:55:31;;;;;;;9.07;6.03;;;;;;;;;;5050436;28;20032;-48
2022/08/23 07:57:56;;;;;;;12.43;7.78;;;;;;;;;;5029286;28;20017;-46
2022/08/23 08:00:21;;;;;;;10.32;7.20;;;;;;;;;;5052389;28;20025;-46
2022/08/23 08:02:47;;;;;;;13.93;9.50;;;;;;;;;;5034356;28;20025;-48
2022/08/23 08:05:12;;;;;;;12.57;9.10;;;;;;;;;;5052009;28;20516;-45
2022/08/23 08:07:37;;;;;;;8.95;6.68;;;;;;;;;;5033805;28;20052;-46
2022/08/23 08:10:03;;;;;;;11.25;7.68;;;;;;;;;;5034126;28;20025;-44
2022/08/23 08:12:30;;;;;;;9.45;7.68;;;;;;;;;;5051943;28;20028;-44
2022/08/23 08:14:55;;;;;;;9.73;7.47;;;;;;;;;;5022645;28;20445;-44
2022/08/23 08:17:21;;;;;;;13.50;7.43;;;;;;;;;;5014277;28;20048;-44
2022/08/23 08:19:46;;;;;;;7.10;6.07;;;;;;;;;;5031949;28;20091;-44
2022/08/23 08:22:11;;;;;;;8.83;6.93;;;;;;;;;;5031502;28;20358;-45
2022/08/23 08:24:37;;;;;;;8.02;5.68;;;;;;;;;;5012967;28;20029;-45
2022/08/23 08:27:03;;;;;;;9.73;7.07;;;;;;;;;;5032314;28;20030;-44
2022/08/23 08:29:28;;;;;;;10.85;7.85;;;;;;;;;;5031568;28;20380;-45
2022/08/23 08:31:53;;;;;;;11.40;8.85;;;;;;;;;;5032013;28;20021;-44
2022/08/23 08:34:19;;;;;;;11.35;8.20;;;;;;;;;;5013177;28;20029;-47
2022/08/23 08:36:49;;;;;;;12.38;7.90;;;;;;;;;;5031462;28;20053;-44
2022/08/23 08:39:25;;;;;;;9.55;6.60;;;;;;;;;;5031502;28;20032;-45
2022/08/23 08:42:06;;;;;;;10.32;8.25;;;;;;;;;;5013675;28;20033;-44
2022/08/23 08:44:40;;;;;;;9.40;8.15;;;;;;;;;;5030876;28;20033;-45
2022/08/23 08:47:28;;;;;;;10.27;7.55;;;;;;;;;;5031383;28;20046;-44
2022/08/23 08:50:01;;;;;;;11.73;8.00;;;;;;;;;;5002474;28;20040;-45
2022/08/23 08:52:33;;;;;;;8.10;6.25;;;;;;;;;;5016722;28;20028;-44
2022/08/23 08:55:09;;;;;;;8.85;6.97;;;;;;;;;;5012764;28;20021;-44
2022/08/23 08:57:39;;;;;;;8.25;6.57;;;;;;;;;;5015215;28;20292;-45
2022/08/23 09:00:12;;;;;;;8.50;6.30;;;;;;;;;;5046521;28;20033;-44
2022/08/23 09:02:37;;;;;;;8.75;6.78;;;;;;;;;;5050432;28;20021;-44
2022/08/23 09:05:06;;;;;;;5.97;5.18;;;;;;;;;;5045570;28;20127;-46
2022/08/23 09:07:40;;;;;;;10.07;5.70;;;;;;;;;;5064055;28;20052;-45
2022/08/23 09:10:08;;;;;;;9.63;5.55;;;;;;;;;;5066739;28;20036;-46
2022/08/23 09:12:40;;;;;;;5.97;5.10;;;;;;;;;;5067950;28;20032;-44
2022/08/23 09:15:14;;;;;;;6.30;4.60;;;;;;;;;;5064434;28;20078;-44
2022/08/23 09:17:42;;;;;;;5.68;4.57;;;;;;;;;;5063533;28;20153;-44
2022/08/23 09:20:08;;;;;;;;;;;;;;;;;;5065975;28;20468;-45
2022/08/23 09:22:36;;;;;;;6.97;5.73;;;;;;;;;;5062678;28;19914;-44
2022/08/23 09:25:03;;;;;;;6.97;5.45;;;;;;;;;;5060132;28;20253;-44
2022/08/23 09:27:29;;;;;;;8.10;5.80;;;;;;;;;;5055667;28;20392;-43
2022/08/23 09:29:57;;;;;;;10.55;7.47;;;;;;;;;;5063041;28;20534;-45
2022/08/23 09:32:25;;;;;;;7.83;6.43;;;;;;;;;;5068150;28;20021;-44
2022/08/23 09:34:51;;;;;;;4.15;3.63;;;;;;;;;;5057623;28;20266;-44
2022/08/23 09:37:24;;;;;;;6.32;4.53;;;;;;;;;;5066843;28;20423;-45
2022/08/23 09:39:50;;;;;;;9.77;6.93;;;;;;;;;;5059424;28;20383;-45
2022/08/23 09:42:26;;;;;;;6.30;4.80;;;;;;;;;;5062593;28;20021;-45
2022/08/23 09:44:52;;;;;;;6.85;4.00;;;;;;;;;;5063941;28;20089;-45
2022/08/23 09:47:17;;;;;;;5.43;4.45;;;;;;;;;;5062973;28;20037;-45
2022/08/23 09:49:44;;;;;;;6.00;5.25;;;;;;;;;;5061523;28;20107;-45
2022/08/23 09:52:26;;;;;;;8.65;5.72;;;;;;;;;;5060272;28;20028;-44
2022/08/23 09:54:59;;;;;;;7.88;4.80;;;;;;;;;;5065397;28;20039;-46
2022/08/23 09:57:26;;;;;;;7.18;4.90;;;;;;;;;;5055949;28;20043;-45
2022/08/23 09:59:54;;;;;;;4.95;4.03;;;;;;;;;;5059007;28;20475;-46
2022/08/23 10:02:20;;;;;;;4.82;4.20;;;;;;;;;;5065714;28;20032;-45
2022/08/23 10:04:51;;;;;;;6.40;5.20;;;;;;;;;;5058669;28;20374;-45
2022/08/23 10:07:19;;;;;;;7.78;4.43;;;;;;;;;;5047098;28;20059;-47
2022/08/23 10:09:45;;;;;;;5.53;4.53;;;;;;;;;;5043390;28;20056;-45
2022/08/23 10:12:10;;;;;;;13.68;6.25;;;;;;;;;;5041992;28;20029;-45
2022/08/23 10:14:35;;;;;;;6.78;4.50;;;;;;;;;;5028856;28;20052;-45
2022/08/23 10:17:07;;;;;;;7.67;5.20;;;;;;;;;;5043006;28;20028;-45
2022/08/23 10:19:51;;;;;;;6.47;4.35;;;;;;;;;;5031172;28;20270;-46
2022/08/23 10:22:16;;;;;;;5.07;4.00;;;;;;;;;;5042427;28;20070;-45
2022/08/23 10:25:01;;;;;;;7.70;4.85;;;;;;;;;;5026514;28;20029;-48
2022/08/23 10:30:55;;;;;;;7.75;4.68;;;;;;;;;;5046554;28;20068;-46
2022/08/23 10:33:41;;;;;;;7.25;3.97;;;;;;;;;;5003516;28;20037;-45
2022/08/23 10:36:12;;;;;;;7.93;5.18;;;;;;;;;;5043252;28;20124;-46
2022/08/23 10:38:37;;;;;;;7.28;4.53;;;;;;;;;;5048267;28;20025;-45
2022/08/23 10:41:20;;;;;;;6.05;4.75;;;;;;;;;;5030354;28;20142;-45
2022/08/23 10:44:01;;;;;;;3.75;2.83;;;;;;;;;;5023422;28;20059;-48
2022/08/23 10:46:28;;;;;;;4.75;3.55;;;;;;;;;;5027264;28;20388;-46
2022/08/23 10:48:55;;;;;;;7.50;4.68;;;;;;;;;;5048497;28;20141;-45
2022/08/23 10:51:28;;;;;;;6.22;3.53;;;;;;;;;;5045608;28;20029;-45
2022/08/23 10:53:55;;;;;;;10.57;5.30;;;;;;;;;;5031315;28;20060;-47
2022/08/23 10:56:22;;;;;;;6.25;3.80;;;;;;;;;;5046369;28;20053;-45
2022/08/23 10:58:59;;;;;;;7.95;4.75;;;;;;;;;;5030987;28;20052;-46
2022/08/23 11:01:30;;;;;;;5.70;4.28;;;;;;;;;;5045556;28;20021;-48
2022/08/23 11:03:56;;;;;;;4.85;3.10;;;;;;;;;;5025492;28;20086;-45
2022/08/23 11:06:24;;;;;;;4.88;3.58;;;;;;;;;;5049577;28;20041;-46
2022/08/23 11:09:00;;;;;;;7.35;3.92;;;;;;;;;;5027042;28;20028;-47
2022/08/23 11:11:41;;;;;;;5.68;3.15;;;;;;;;;;5042888;28;20032;-46
2022/08/23 11:14:09;;;;;;;5.43;3.50;;;;;;;;;;5047254;28;20029;-46
2022/08/23 11:16:36;;;;;;;4.18;2.83;;;;;;;;;;5032851;28;20059;-46
2022/08/23 11:19:02;;;;;;;5.00;3.45;;;;;;;;;;5043363;28;20119;-45
2022/08/23 11:21:38;;;;;;;9.02;4.15;;;;;;;;;;5050062;28;20091;-44
2022/08/23 11:24:03;;;;;;;5.45;3.17;;;;;;;;;;5033427;28;20517;-46
2022/08/23 11:26:30;;;;;;;7.80;4.60;;;;;;;;;;5049923;28;20029;-45
2022/08/23 11:29:04;;;;;;;5.93;3.92;;;;;;;;;;5041522;28;20056;-47
2022/08/23 11:31:35;;;;;;;7.20;4.68;;;;;;;;;;5033280;28;20048;-43
2022/08/23 11:34:05;;;;;;;4.65;3.80;;;;;;;;;;5048408;28;20020;-47
2022/08/23 11:36:32;;;;;;;8.77;4.10;;;;;;;;;;5049107;28;20101;-45
2022/08/23 11:38:57;;;;;;;4.53;3.55;;;;;;;;;;5049076;28;20043;-43
2022/08/23 11:41:22;;;;;;;7.20;3.50;;;;;;;;;;5044752;28;20376;-44
2022/08/23 11:44:09;;;;;;;4.40;3.72;;;;;;;;;;5028387;28;20056;-47
2022/08/23 11:46:50;;;;;;;6.45;3.70;;;;;;;;;;5027897;28;20049;-44
2022/08/23 11:49:24;;;;;;;6.97;2.85;;;;;;;;;;5048683;28;20388;-45
2022/08/23 11:51:52;;;;;;;3.97;3.47;;;;;;;;;;5024972;28;20124;-46
2022/08/23 11:54:21;;;;;;;7.30;3.38;;;;;;;;;;5024529;28;20116;-44
2022/08/23 11:56:54;;;;;;;2.85;2.65;;;;;;;;;;5048859;28;20071;-44
2022/08/23 11:59:28;;;;;;;4.88;2.40;;;;;;;;;;5037783;28;20028;-45
2022/08/23 12:01:54;;;;;;;3.20;2.22;;;;;;;;;;5034951;28;20037;-44
2022/08/23 12:04:30;;;;;;;5.63;2.33;;;;;;;;;;5046955;28;20726;-45
2022/08/23 12:07:01;;;;;;;3.95;2.88;;;;;;;;;;5025801;28;20087;-45
2022/08/23 12:09:27;;;;;;;4.35;2.70;;;;;;;;;;5041251;28;20026;-44
2022/08/23 12:11:55;;;;;;;4.83;2.73;;;;;;;;;;5041572;28;20020;-45
2022/08/23 12:14:29;;;;;;;3.25;2.78;;;;;;;;;;5046968;28;20048;-43
2022/08/23 12:16:55;;;;;;;4.38;2.42;;;;;;;;;;5017347;28;20037;-46
2022/08/23 12:19:40;;;;;;;2.97;2.35;;;;;;;;;;5031794;28;20478;-45
2022/08/23 12:22:17;;;;;;;3.92;2.95;;;;;;;;;;5031609;28;20052;-45
2022/08/23 12:24:45;;;;;;;6.28;2.75;;;;;;;;;;5031121;28;20032;-44
2022/08/23 12:27:16;;;;;;;3.67;2.58;;;;;;;;;;5031183;28;20116;-45
2022/08/23 12:29:44;;;;;;;3.67;2.78;;;;;;;;;;5031914;28;20033;-44
2022/08/23 12:32:28;;;;;;;2.65;2.38;;;;;;;;;;5031212;28;20033;-45
2022/08/23 12:34:53;;;;;;;2.97;2.42;;;;;;;;;;5013184;28;20123;-44
2022/08/23 12:37:37;;;;;;;6.67;3.00;;;;;;;;;;5013379;28;20025;-45
2022/08/23 12:40:07;;;;;;;2.83;2.25;;;;;;;;;;5013879;28;20257;-43
2022/08/23 12:42:35;;;;;;;3.05;2.30;;;;;;;;;;5033085;28;20041;-44
2022/08/23 12:45:03;;;;;;;3.10;2.20;;;;;;;;;;5042135;28;20040;-46
2022/08/23 12:47:28;;;;;;;5.78;2.65;;;;;;;;;;5051567;28;20035;-44
2022/08/23 12:49:59;;;;;;;4.57;2.17;;;;;;;;;;5050973;28;20021;-44
2022/08/23 12:52:27;;;;;;;2.83;2.35;;;;;;;;;;5030485;28;20116;-45
2022/08/23 12:54:56;;;;;;;4.25;2.55;;;;;;;;;;5025961;28;20043;-45
2022/08/23 12:57:26;;;;;;;2.65;2.20;;;;;;;;;;5026008;28;20130;-44
2022/08/23 13:00:02;;;;;;;2.40;1.75;;;;;;;;;;5028902;28;20056;-46
2022/08/23 13:02:31;;;;;;;3.80;1.77;;;;;;;;;;5030900;28;20082;-45
2022/08/23 13:05:01;;;;;;;25.05;4.57;;;;;;;;;;5048256;28;20048;-45
2022/08/23 13:07:27;;;;;;;2.38;1.95;;;;;;;;;;5038652;28;20071;-44
2022/08/23 13:09:52;;;;;;;6.15;1.98;;;;;;;;;;5050310;28;20045;-44
2022/08/23 13:12:18;;;;;;;6.60;2.10;;;;;;;;;;5031019;28;20021;-44
2022/08/23 13:14:48;;;;;;;2.50;2.10;;;;;;;;;;5044639;28;20558;-44
2022/08/23 13:17:17;;;;;;;2.88;2.00;;;;;;;;;;5030474;28;20457;-44
2022/08/23 13:19:43;;;;;;;2.83;1.98;;;;;;;;;;5034746;28;20062;-45
2022/08/23 13:22:18;;;;;;;2.72;2.08;;;;;;;;;;5039002;28;20035;-45
2022/08/23 13:25:04;;;;;;;2.47;2.08;;;;;;;;;;5024849;28;20029;-45
2022/08/23 13:27:44;;;;;;;2.40;2.20;;;;;;;;;;5014354;28;20526;-44
2022/08/23 13:30:21;;;;;;;2.88;2.20;;;;;;;;;;5045563;28;20033;-44
2022/08/23 13:32:47;;;;;;;5.95;2.83;;;;;;;;;;5030393;28;20018;-45
2022/08/23 13:35:24;;;;;;;3.55;2.50;;;;;;;;;;5029938;28;20503;-45
2022/08/23 13:37:52;;;;;;;3.00;2.40;;;;;;;;;;5030199;28;20038;-43
2022/08/23 13:40:22;;;;;;;4.03;2.28;;;;;;;;;;5029838;28;20496;-44
2022/08/23 13:42:59;;;;;;;2.95;2.35;;;;;;;;;;5045978;28;20403;-46
2022/08/23 13:45:32;;;;;;;13.52;3.22;;;;;;;;;;5046353;28;20516;-45
2022/08/23 13:48:00;;;;;;;6.10;2.80;;;;;;;;;;5039782;28;20365;-45
2022/08/23 13:50:28;;;;;;;4.68;2.97;;;;;;;;;;5039738;28;20021;-45
2022/08/23 13:52:54;;;;;;;3.50;2.95;;;;;;;;;;5028523;28;20112;-45
2022/08/23 13:55:19;;;;;;;2.97;2.30;;;;;;;;;;5029736;28;20434;-45
2022/08/23 13:57:45;;;;;;;4.20;2.70;;;;;;;;;;5043598;28;20021;-45
2022/08/23 14:00:10;;;;;;;3.22;2.65;;;;;;;;;;5044212;28;20124;-46
2022/08/23 14:02:36;;;;;;;2.85;2.53;;;;;;;;;;5024083;28;20025;-45
2022/08/23 14:05:06;;;;;;;2.80;2.50;;;;;;;;;;5043256;28;20407;-45
2022/08/23 14:07:32;;;;;;;5.57;3.00;;;;;;;;;;5058485;28;20404;-45
2022/08/23 14:09:58;;;;;;;3.78;3.08;;;;;;;;;;5064877;28;20065;-45
2022/08/23 14:12:26;;;;;;;3.28;2.70;;;;;;;;;;5068631;28;20028;-44
2022/08/23 14:14:51;;;;;;;4.90;2.90;;;;;;;;;;5057527;28;20021;-46
2022/08/23 14:17:17;;;;;;;3.93;2.70;;;;;;;;;;5067514;28;20695;-44
2022/08/23 14:19:45;;;;;;;5.68;2.75;;;;;;;;;;5056324;28;20258;-45
2022/08/23 14:22:10;;;;;;;3.30;2.80;;;;;;;;;;5061708;28;20028;-46
2022/08/23 14:24:37;;;;;;;4.43;2.47;;;;;;;;;;5068848;28;20461;-44
2022/08/23 14:27:02;;;;;;;4.95;3.00;;;;;;;;;;5064809;28;20031;-45
2022/08/23 14:29:28;;;;;;;3.63;2.95;;;;;;;;;;5071059;28;20390;-44
2022/08/23 14:31:54;;;;;;;3.85;2.70;;;;;;;;;;5066892;28;20107;-44
2022/08/23 14:34:20;;;;;;;4.05;3.65;;;;;;;;;;5066187;28;20029;-44
2022/08/23 14:36:45;;;;;;;3.70;2.85;;;;;;;;;;5070124;28;20025;-45
2022/08/23 14:39:10;;;;;;;7.28;3.65;;;;;;;;;;5071647;28;20115;-44
2022/08/23 14:41:36;;;;;;;5.70;3.33;;;;;;;;;;5073342;28;20056;-43
2022/08/23 14:44:01;;;;;;;5.05;3.80;;;;;;;;;;5071979;28;20590;-44
2022/08/23 14:46:27;;;;;;;4.13;3.00;;;;;;;;;;5072153;28;20371;-46